createdAt,value
2022-11-08T00:01:23.749Z,18.00
2022-11-08T00:06:35.503Z,19.25
2022-11-08T00:11:47.610Z,18.73
2022-11-08T00:16:41.279Z,21.70
2022-11-08T00:21:34.853Z,24.05
2022-11-08T00:26:28.630Z,21.52
2022-11-08T00:31:22.398Z,17.73
2022-11-08T00:36:16.483Z,16.75
2022-11-08T00:41:10.720Z,16.98
2022-11-08T00:46:04.414Z,18.38
2022-11-08T00:51:01.663Z,18.55
2022-11-08T00:56:05.982Z,18.63
2022-11-08T01:00:59.540Z,18.85
2022-11-08T01:05:55.048Z,19.63
2022-11-08T01:10:50.497Z,19.80
2022-11-08T01:15:45.882Z,20.20
2022-11-08T01:20:42.383Z,21.13
2022-11-08T01:25:38.214Z,21.15
2022-11-08T01:30:31.227Z,19.30
2022-11-08T01:35:24.776Z,20.33
2022-11-08T01:40:18.183Z,20.02
2022-11-08T01:45:12.383Z,20.15
2022-11-08T01:50:12.612Z,18.77
2022-11-08T01:55:11.026Z,16.83
2022-11-08T02:00:08.708Z,18.25
2022-11-08T02:05:04.502Z,19.83
2022-11-08T02:09:58.439Z,20.15
2022-11-08T02:14:51.577Z,20.35
2022-11-08T02:19:50.013Z,22.02
2022-11-08T02:24:44.321Z,23.52
2022-11-08T02:29:37.989Z,24.13
2022-11-08T02:34:47.003Z,27.65
2022-11-08T02:39:40.530Z,29.13
2022-11-08T02:44:33.285Z,28.17
2022-11-08T02:49:27.231Z,27.48
2022-11-08T02:54:20.820Z,24.77
2022-11-08T02:59:13.862Z,26.50
2022-11-08T03:04:07.624Z,25.52
2022-11-08T03:09:00.623Z,24.83
2022-11-08T03:13:53.607Z,26.13
2022-11-08T03:18:47.238Z,22.42
2022-11-08T03:23:40.698Z,19.70
2022-11-08T03:28:34.824Z,20.27
2022-11-08T03:33:27.868Z,18.23
2022-11-08T03:38:20.607Z,19.38
2022-11-08T03:43:14.628Z,17.52
2022-11-08T03:48:09.076Z,18.15
2022-11-08T03:53:02.531Z,17.00
2022-11-08T03:57:56.581Z,14.77
2022-11-08T04:02:50.212Z,15.68
2022-11-08T04:07:43.678Z,16.88
2022-11-08T04:13:02.175Z,17.15
2022-11-08T04:18:14.145Z,17.45
2022-11-08T04:23:08.062Z,18.08
2022-11-08T04:28:01.598Z,16.90
2022-11-08T04:32:55.429Z,16.83
2022-11-08T04:37:49.090Z,17.02
2022-11-08T04:42:45.207Z,19.98
2022-11-08T04:47:42.067Z,20.45
2022-11-08T04:52:38.243Z,21.73
2022-11-08T04:57:31.839Z,20.75
2022-11-08T05:02:26.606Z,19.77
2022-11-08T05:07:22.035Z,18.50
2022-11-08T05:12:15.370Z,16.15
2022-11-08T05:17:09.192Z,15.75
2022-11-08T05:22:21.581Z,16.48
2022-11-08T05:27:15.414Z,16.02
2022-11-08T05:32:09.345Z,13.98
2022-11-08T05:37:02.646Z,14.75
2022-11-08T05:41:56.543Z,15.57
2022-11-08T05:46:49.771Z,14.07
2022-11-08T05:51:43.647Z,14.05
2022-11-08T05:56:37.579Z,17.70
2022-11-08T06:01:30.685Z,18.00
2022-11-08T06:06:23.845Z,18.33
2022-11-08T06:11:25.662Z,15.45
2022-11-08T06:16:19.871Z,15.57
2022-11-08T06:21:14.975Z,16.73
2022-11-08T06:26:09.322Z,16.23
2022-11-08T06:31:03.592Z,14.77
2022-11-08T06:35:57.344Z,16.48
2022-11-08T06:40:51.752Z,16.38
2022-11-08T06:45:44.297Z,16.75
2022-11-08T06:50:38.689Z,18.20
2022-11-08T06:55:32.067Z,17.40
2022-11-08T07:00:25.410Z,17.38
2022-11-08T07:05:20.209Z,16.50
2022-11-08T07:10:14.583Z,15.75
2022-11-08T07:15:10.254Z,17.55
2022-11-08T07:20:03.890Z,19.15
2022-11-08T07:24:58.024Z,20.52
2022-11-08T07:29:52.244Z,22.52
2022-11-08T07:34:46.680Z,23.90
2022-11-08T07:39:40.431Z,22.60
2022-11-08T07:44:34.569Z,43.65
2022-11-08T07:49:28.302Z,29.10
2022-11-08T07:54:22.081Z,27.70
2022-11-08T07:59:17.107Z,24.90
2022-11-08T08:04:12.880Z,22.80
2022-11-08T08:09:06.576Z,20.75
2022-11-08T08:14:01.006Z,19.70
2022-11-08T08:18:56.731Z,19.02
2022-11-08T08:23:51.203Z,21.60
2022-11-08T08:28:45.042Z,17.52
2022-11-08T08:33:38.419Z,22.33
2022-11-08T08:38:32.529Z,22.08
2022-11-08T08:43:27.994Z,19.98
2022-11-08T08:48:22.740Z,19.60
2022-11-08T08:53:16.759Z,17.98
2022-11-08T08:58:11.471Z,18.23
2022-11-08T09:03:12.033Z,19.90
2022-11-08T09:08:07.056Z,22.50
2022-11-08T09:13:02.638Z,19.80
2022-11-08T09:17:56.845Z,20.50
2022-11-08T09:22:50.159Z,22.45
2022-11-08T09:27:44.404Z,21.17
2022-11-08T09:33:02.712Z,23.38
2022-11-08T09:37:50.797Z,22.52
2022-11-08T09:43:20.033Z,21.42
2022-11-08T09:48:27.288Z,23.90
2022-11-08T09:53:27.198Z,22.75
2022-11-08T09:58:37.422Z,21.48
2022-11-08T10:03:31.034Z,22.23
2022-11-08T10:09:05.863Z,23.50
2022-11-08T10:14:16.920Z,24.40
2022-11-08T10:19:35.247Z,25.95
2022-11-08T10:24:54.290Z,24.87
2022-11-08T10:29:47.932Z,25.40
2022-11-08T10:34:57.613Z,25.13
2022-11-08T10:40:06.357Z,23.63
2022-11-08T10:45:00.627Z,25.13
2022-11-08T10:49:57.218Z,23.10
2022-11-08T10:59:47.280Z,24.67
2022-11-08T11:04:41.839Z,22.92
2022-11-08T11:09:35.822Z,25.08
2022-11-08T11:14:29.600Z,27.02
2022-11-08T11:19:46.052Z,24.83
2022-11-08T11:24:50.824Z,24.80
2022-11-08T11:30:41.435Z,22.73
2022-11-08T11:35:41.101Z,24.13
2022-11-08T11:40:44.902Z,26.92
2022-11-08T11:45:47.118Z,25.75
2022-11-08T11:50:42.449Z,25.40
2022-11-08T11:56:00.853Z,27.45
2022-11-08T12:01:14.503Z,26.17
2022-11-08T12:06:32.977Z,25.95
2022-11-08T12:11:55.155Z,25.45
2022-11-08T12:17:04.461Z,24.90
2022-11-08T12:22:28.082Z,23.30
2022-11-08T12:27:41.455Z,25.98
2022-11-08T12:32:55.106Z,24.85
2022-11-08T12:37:51.410Z,23.67
2022-11-08T12:43:10.767Z,24.08
2022-11-08T12:48:31.868Z,27.60
2022-11-08T12:53:49.551Z,25.30
2022-11-08T12:58:46.895Z,26.33
2022-11-08T13:03:43.701Z,25.45
2022-11-08T13:08:45.140Z,26.48
2022-11-08T13:14:01.025Z,25.42
2022-11-08T13:18:59.420Z,26.30
2022-11-08T13:23:53.475Z,24.48
2022-11-08T13:28:47.170Z,24.42
2022-11-08T13:34:06.011Z,25.42
2022-11-08T13:39:19.765Z,26.83
2022-11-08T13:44:51.692Z,25.63
2022-11-08T13:49:45.458Z,29.17
2022-11-08T13:54:51.795Z,27.65
2022-11-08T13:59:44.656Z,28.95
2022-11-08T14:04:41.072Z,27.95
2022-11-08T14:09:42.923Z,28.08
2022-11-08T14:14:47.793Z,26.73
2022-11-08T14:19:42.899Z,28.58
2022-11-08T14:24:58.918Z,27.05
2022-11-08T14:30:33.904Z,29.00
2022-11-08T14:35:27.654Z,26.55
2022-11-08T14:40:26.008Z,27.55
2022-11-08T14:45:25.491Z,28.33
2022-11-08T14:50:23.565Z,29.15
2022-11-08T14:55:23.429Z,28.98
2022-11-08T15:00:21.891Z,28.98
2022-11-08T15:05:31.134Z,28.98
2022-11-08T15:10:25.522Z,29.50
2022-11-08T15:15:27.384Z,28.90
2022-11-08T15:20:22.796Z,27.95
2022-11-08T15:25:15.183Z,30.08
2022-11-08T15:30:09.522Z,28.45
2022-11-08T15:35:03.190Z,28.88
2022-11-08T15:39:56.703Z,29.30
2022-11-08T15:45:00.224Z,28.30
2022-11-08T15:49:54.801Z,27.80
2022-11-08T15:54:48.688Z,30.00
2022-11-08T15:59:42.310Z,29.75
2022-11-08T16:04:36.974Z,29.98
2022-11-08T16:09:30.754Z,29.25
2022-11-08T16:14:25.802Z,29.42
2022-11-08T16:19:24.126Z,29.60
2022-11-08T16:24:17.351Z,31.57
2022-11-08T16:29:23.669Z,30.42
2022-11-08T16:34:17.440Z,36.80
2022-11-08T16:39:16.688Z,34.80
2022-11-08T16:44:10.825Z,33.85
2022-11-08T16:49:06.828Z,31.80
2022-11-08T16:54:01.206Z,32.30
2022-11-08T16:58:55.885Z,33.25
2022-11-08T17:03:50.008Z,33.05
2022-11-08T17:08:49.967Z,35.33
2022-11-08T17:13:44.428Z,35.03
2022-11-08T17:18:37.387Z,36.05
2022-11-08T17:23:31.247Z,36.80
2022-11-08T17:28:25.144Z,40.58
2022-11-08T17:33:19.424Z,37.78
2022-11-08T17:38:16.472Z,37.10
2022-11-08T17:43:10.670Z,37.15
2022-11-08T17:48:04.091Z,36.88
2022-11-08T17:52:58.557Z,37.03
2022-11-08T17:57:52.427Z,36.25
2022-11-08T18:02:47.219Z,38.00
2022-11-08T18:07:41.593Z,37.17
2022-11-08T18:12:36.124Z,36.15
2022-11-08T18:17:29.934Z,36.30
2022-11-08T18:22:24.654Z,37.63
2022-11-08T18:27:18.725Z,40.85
2022-11-08T18:32:13.419Z,47.35
2022-11-08T18:37:08.076Z,46.35
2022-11-08T18:42:01.815Z,50.90
2022-11-08T18:46:56.340Z,64.80
2022-11-08T18:51:53.004Z,62.47
2022-11-08T18:56:47.789Z,57.17
2022-11-08T19:01:41.684Z,60.35
2022-11-08T19:06:37.162Z,54.55
2022-11-08T19:11:35.209Z,54.67
2022-11-08T19:21:29.448Z,54.28
2022-11-08T19:26:27.035Z,49.65
2022-11-08T19:31:23.040Z,49.30
2022-11-08T19:36:21.263Z,50.22
2022-11-08T19:41:15.773Z,47.42
2022-11-08T19:46:14.897Z,46.92
2022-11-08T19:51:17.837Z,43.60
2022-11-08T19:56:13.405Z,43.00
2022-11-08T20:01:15.671Z,45.60
2022-11-08T20:06:10.015Z,50.35
2022-11-08T20:11:14.124Z,48.35
2022-11-08T20:16:24.757Z,51.03
2022-11-08T20:21:25.850Z,55.30
2022-11-08T20:26:21.903Z,55.35
2022-11-08T20:31:20.349Z,55.20
2022-11-08T20:36:18.036Z,55.90
2022-11-08T20:41:14.710Z,50.25
2022-11-08T20:46:15.801Z,51.42
2022-11-08T20:51:09.395Z,44.55
2022-11-08T20:56:12.619Z,41.25
2022-11-08T21:01:07.098Z,41.05
2022-11-08T21:06:02.933Z,41.20
2022-11-08T21:10:56.682Z,42.65
2022-11-08T21:15:50.183Z,48.38
2022-11-08T21:20:44.607Z,48.15
2022-11-08T21:25:39.308Z,46.55
2022-11-08T21:30:33.707Z,46.97
2022-11-08T21:35:26.137Z,46.45
2022-11-08T21:40:21.280Z,44.33
2022-11-08T21:45:14.302Z,43.70
2022-11-08T21:50:10.880Z,45.92
2022-11-08T21:55:06.001Z,48.35
2022-11-08T21:59:58.845Z,50.22
2022-11-08T22:04:53.231Z,51.58
2022-11-08T22:09:47.887Z,51.00
2022-11-08T22:14:42.349Z,50.67
2022-11-08T22:19:34.830Z,49.50
2022-11-08T22:24:28.873Z,51.67
2022-11-08T22:29:22.832Z,47.42
2022-11-08T22:34:16.759Z,46.28
2022-11-08T22:39:12.912Z,49.28
2022-11-08T22:44:11.737Z,47.85
2022-11-08T22:49:06.830Z,45.78
2022-11-08T22:54:00.410Z,45.90
2022-11-08T22:58:54.158Z,45.92
2022-11-08T23:03:47.902Z,48.47
2022-11-08T23:08:41.530Z,47.20
2022-11-08T23:13:57.882Z,44.88
2022-11-08T23:19:13.999Z,44.10
2022-11-08T23:24:21.390Z,45.42
2022-11-08T23:29:34.381Z,45.55
2022-11-08T23:34:28.982Z,43.33
2022-11-08T23:39:23.660Z,46.45
2022-11-08T23:44:25.330Z,43.28
2022-11-08T23:49:18.993Z,47.03
2022-11-08T23:54:12.654Z,46.22
2022-11-08T23:59:05.884Z,46.70
